^^
Meteo Knjazevac Station Historical Data
Daily Summary for December 10, 2019 Units:  Both    English   Metric
Daily Weekly Monthly Yearly Custom
  High: Low: Average:
Temperature: 34 °F /  1.1 °C 30.7 °F /  -0.7 °C 32.4 °F /  0.2 °C
Dew Point: 32.8 °F /  0.4 °C 29.9 °F /  -1.2 °C 31.4 °F /  -0.3 °C
Humidity: 98% 94% 96%
Wind Speed: 5mph /  8km/h - 1.5mph /  2.4km/h
Wind Gust: 10mph /  16.1km/h - -
Wind- - SW
Pressure: 29.84 in /  1010.4 hPa 29.82 in /  1009.7 hPa -
Precipitation: 0.00 in /  0 mm    
Historical Graphs
 
 
Tabular Data for December 10, 2019
Time Temperature Dew Point Pressure Wind Wind Speed Wind Gust Humidity Rainfall Rate (Hourly) solar Conditions
00:00 34 °F /  1.1 °C 32.7 °F /  0.4 °C 29.82in /  1009.7hPa Calm   4mph /  6.4km/h 95% 0.00in /  0mm 0 W/m2
00:10 33.6 °F /  0.9 °C 32 °F /  0 °C 29.82in /  1009.7hPa West 2mph /  3.2km/h 4mph /  6.4km/h 94% 0.00in /  0mm 0 W/m2
00:20 32.9 °F /  0.5 °C 31.4 °F /  -0.3 °C 29.82in /  1009.7hPa West 5mph /  8km/h 7mph /  11.3km/h 94% 0.00in /  0mm 0 W/m2
00:30 33.1 °F /  0.6 °C 32.1 °F /  0.1 °C 29.82in /  1009.7hPa West 3mph /  4.8km/h 6mph /  9.7km/h 96% 0.00in /  0mm 0 W/m2
00:40 33.1 °F /  0.6 °C 32.1 °F /  0.1 °C 29.82in /  1009.7hPa West 3mph /  4.8km/h 5mph /  8km/h 96% 0.00in /  0mm 0 W/m2
00:50 33.1 °F /  0.6 °C 32.1 °F /  0.1 °C 29.82in /  1009.7hPa West 3mph /  4.8km/h 6mph /  9.7km/h 96% 0.00in /  0mm 0 W/m2
01:00 33.3 °F /  0.7 °C 32.8 °F /  0.4 °C 29.82in /  1009.7hPa NW 1mph /  1.6km/h 6mph /  9.7km/h 98% 0.00in /  0mm 0 W/m2
01:10 33.3 °F /  0.7 °C 32.2 °F /  0.1 °C 29.83in /  1010hPa NNE 3mph /  4.8km/h 6mph /  9.7km/h 96% 0.00in /  0mm 0 W/m2
01:20 33.3 °F /  0.7 °C 32.8 °F /  0.4 °C 29.83in /  1010hPa NNE 5mph /  8km/h 10mph /  16.1km/h 98% 0.00in /  0mm 0 W/m2
01:30 32.9 °F /  0.5 °C 31.9 °F /  -0.1 °C 29.83in /  1010hPa Calm   8mph /  12.9km/h 96% 0.00in /  0mm 0 W/m2
01:40 32.4 °F /  0.2 °C 31.1 °F /  -0.5 °C 29.83in /  1010hPa Calm   6mph /  9.7km/h 95% 0.00in /  0mm 0 W/m2
01:50 32 °F /  0 °C 30.7 °F /  -0.7 °C 29.83in /  1010hPa Calm   2mph /  3.2km/h 95% 0.00in /  0mm 0 W/m2
02:00 31.8 °F /  -0.1 °C 30.6 °F /  -0.8 °C 29.83in /  1010hPa Calm   2mph /  3.2km/h 95% 0.00in /  0mm 0 W/m2
02:10 31.6 °F /  -0.2 °C 30.6 °F /  -0.8 °C 29.84in /  1010.4hPa West 1mph /  1.6km/h 2mph /  3.2km/h 96% 0.00in /  0mm 0 W/m2
02:20 31.5 °F /  -0.3 °C 30.5 °F /  -0.8 °C 29.83in /  1010hPa Calm   3mph /  4.8km/h 96% 0.00in /  0mm 0 W/m2
02:30 31.6 °F /  -0.2 °C 31.1 °F /  -0.5 °C 29.84in /  1010.4hPa Calm   3mph /  4.8km/h 98% 0.00in /  0mm 0 W/m2
02:40 31.6 °F /  -0.2 °C 31.1 °F /  -0.5 °C 29.83in /  1010hPa Calm   2mph /  3.2km/h 98% 0.00in /  0mm 0 W/m2
02:50 31.3 °F /  -0.4 °C 30.8 °F /  -0.7 °C 29.83in /  1010hPa Calm   3mph /  4.8km/h 98% 0.00in /  0mm 0 W/m2
03:00 30.9 °F /  -0.6 °C 29.9 °F /  -1.2 °C 29.83in /  1010hPa West 2mph /  3.2km/h 3mph /  4.8km/h 96% 0.00in /  0mm 0 W/m2
03:10 30.7 °F /  -0.7 °C 30.2 °F /  -1 °C 29.82in /  1009.7hPa WNW 2mph /  3.2km/h 4mph /  6.4km/h 98% 0.00in /  0mm 0 W/m2
Knjazevac, Serbia
Compliments of Weather Underground - 2 mb